Puerto Cortes, Honduras
Current Conditions -  °F | °C
As of 6:00 PM on Friday 28 Nov 2014 (Local Time) from MHLM Reporting Station
Drizzle Drizzle  
Wind Chill: 66°   Ceiling: 2000
Heat Index: 66°   Visibility: 1.2mi
Dew Point: 66°   Wind: 0mph
Humidity: 100%   Direction: NA
Pressure: 30.09"   Gusts: NA
Location:  15.85°N, 87.94°W
Report Text: MHLM 290000Z 00000KT 2000 DZ FEW004 BKN020 OVC080 19/19 Q1019 A3009 NOSIG
Loading
Personal Weather Stations






























Interactive Weather Map New forecast layout! Learn more

10-Day Weather Forecast

Advertisements
Track Severe Weather on mobile